This is the latest recevied weather packets stored in our database for station/object OK0EK-11. If no packets are shown the sender has not sent any weather packets the latest 10 day(s).
| Time | Temp. | Humidity | Pressure | Rain* | Wind** | Luminosity | Snow |
|---|---|---|---|---|---|---|---|
| 1778066167 | 15.56° C | 62% | 1011.7 hPa | - | - | - | - |
| 1778065567 | 16.11° C | 62% | 1011.9 hPa | - | - | - | - |
| 1778064968 | 16.11° C | 61% | 1011.7 hPa | - | - | - | - |
| 1778064369 | 16.67° C | 59% | 1011.8 hPa | - | - | - | - |
| 1778063770 | 16.11° C | 59% | 1011.7 hPa | - | - | - | - |
| 1778063170 | 16.11° C | 61% | 1011.9 hPa | - | - | - | - |
| 1778062571 | 16.67° C | 60% | 1011.9 hPa | - | - | - | - |
| 1778061971 | 16.11° C | 62% | 1011.8 hPa | - | - | - | - |
| 1778061371 | 15.56° C | 64% | 1011.9 hPa | - | - | - | - |
| 1778060771 | 15.56° C | 65% | 1012 hPa | - | - | - | - |
| 1778060172 | 15° C | 65% | 1011.9 hPa | - | - | - | - |
| 1778059573 | 15.56° C | 64% | 1011.9 hPa | - | - | - | - |
| 1778058974 | 15.56° C | 64% | 1011.9 hPa | - | - | - | - |
| 1778058374 | 15° C | 67% | 1012 hPa | - | - | - | - |
| 1778057775 | 14.44° C | 67% | 1011.8 hPa | - | - | - | - |
| 1778057175 | 14.44° C | 69% | 1011.6 hPa | - | - | - | - |
| 1778056575 | 13.89° C | 73% | 1011.5 hPa | - | - | - | - |
| 1778055975 | 13.33° C | 73% | 1011.5 hPa | - | - | - | - |
| 1778055376 | 13.89° C | 74% | 1011.3 hPa | - | - | - | - |
| 1778054776 | 13.33° C | 75% | 1011.4 hPa | - | - | - | - |
| 1778054177 | 12.78° C | 76% | 1011.1 hPa | - | - | - | - |
| 1778053577 | 12.78° C | 77% | 1011.2 hPa | - | - | - | - |
| 1778052978 | 12.78° C | 77% | 1011.1 hPa | - | - | - | - |
| 1778052378 | 12.22° C | 78% | 1011.1 hPa | - | - | - | - |
| 1778051778 | 12.22° C | 78% | 1011.1 hPa | - | - | - | - |
* Rain since midnight (hover to see other rain measurements)
** Current wind speed in m/s (hover to see current wind gust speed)